createdAt,value
2017-08-25T00:00:37.639Z,978.07
2017-08-25T00:01:47.915Z,978.06
2017-08-25T00:02:58.185Z,978.05
2017-08-25T00:04:08.465Z,978.06
2017-08-25T00:05:18.733Z,978.06
2017-08-25T00:06:29.006Z,978.09
2017-08-25T00:07:39.281Z,978.06
2017-08-25T00:08:49.237Z,978.07
2017-08-25T00:09:58.861Z,978.08
2017-08-25T00:11:09.128Z,978.08
2017-08-25T00:12:19.398Z,978.06
2017-08-25T00:13:29.342Z,978.09
2017-08-25T00:14:39.611Z,978.08
2017-08-25T00:15:49.568Z,978.07
2017-08-25T00:16:59.515Z,978.07
2017-08-25T00:18:09.783Z,978.07
2017-08-25T00:19:20.053Z,978.06
2017-08-25T00:20:30.321Z,978.08
2017-08-25T00:21:40.593Z,978.06
2017-08-25T00:22:50.540Z,978.06
2017-08-25T00:24:00.491Z,978.04
2017-08-25T00:25:10.441Z,978.04
2017-08-25T00:26:20.387Z,978.04
2017-08-25T00:27:30.334Z,978.05
2017-08-25T00:28:40.608Z,978.06
2017-08-25T00:29:50.879Z,978.01
2017-08-25T00:31:00.829Z,978.04
2017-08-25T00:32:10.775Z,978.04
2017-08-25T00:33:20.721Z,978.07
2017-08-25T00:34:30.990Z,978.1
2017-08-25T00:35:40.936Z,978.08
2017-08-25T00:36:51.209Z,978.04
2017-08-25T00:38:01.153Z,978.06
2017-08-25T00:39:11.422Z,978.05
2017-08-25T00:40:21.047Z,978.01
2017-08-25T00:41:31.316Z,978.04
2017-08-25T00:42:41.583Z,978.04
2017-08-25T00:43:51.532Z,978.06
2017-08-25T00:45:01.481Z,978.05
2017-08-25T00:46:11.753Z,978.07
2017-08-25T00:47:22.019Z,978.08
2017-08-25T00:48:31.969Z,978.08
2017-08-25T00:49:42.237Z,978.06
2017-08-25T00:50:52.182Z,978.08
2017-08-25T00:52:02.131Z,978.08
2017-08-25T00:53:12.080Z,978.07
2017-08-25T00:54:22.364Z,978.08
2017-08-25T00:55:31.987Z,978.16
2017-08-25T00:56:42.272Z,978.13
2017-08-25T00:57:52.217Z,978.16
2017-08-25T00:59:02.483Z,978.14
2017-08-25T01:00:12.776Z,978.13
2017-08-25T01:01:23.051Z,978.13
2017-08-25T01:02:33.022Z,978.17
2017-08-25T01:03:42.969Z,978.15
2017-08-25T01:04:53.235Z,978.19
2017-08-25T01:06:03.512Z,978.15
2017-08-25T01:07:13.781Z,978.17
2017-08-25T01:08:24.074Z,978.11
2017-08-25T01:09:34.346Z,978.16
2017-08-25T01:10:43.976Z,978.1
2017-08-25T01:11:53.926Z,978.15
2017-08-25T01:13:03.883Z,978.11
2017-08-25T01:14:14.151Z,978.14
2017-08-25T01:15:23.777Z,978.13
2017-08-25T01:16:34.048Z,978.17
2017-08-25T01:17:44.325Z,978.2
2017-08-25T01:18:54.272Z,978.18
2017-08-25T01:20:04.539Z,978.14
2017-08-25T01:21:14.482Z,978.19
2017-08-25T01:22:24.434Z,978.2
2017-08-25T01:23:34.702Z,978.25
2017-08-25T01:24:44.661Z,978.17
2017-08-25T01:25:54.608Z,978.21
2017-08-25T01:27:04.232Z,978.19
2017-08-25T01:28:14.184Z,978.2
2017-08-25T01:29:24.452Z,978.21
2017-08-25T01:30:34.721Z,978.2
2017-08-25T01:31:44.694Z,978.21
2017-08-25T01:32:54.961Z,978.22
2017-08-25T01:34:05.230Z,978.22
2017-08-25T01:35:15.501Z,978.23
2017-08-25T01:36:25.446Z,978.25
2017-08-25T01:37:35.396Z,978.2
2017-08-25T01:38:45.667Z,978.17
2017-08-25T01:39:55.939Z,978.22
2017-08-25T01:41:05.884Z,978.21
2017-08-25T01:42:15.831Z,978.21
2017-08-25T01:43:26.097Z,978.22
2017-08-25T01:44:36.365Z,978.26
2017-08-25T01:45:46.631Z,978.2
2017-08-25T01:46:55.934Z,978.23
2017-08-25T01:48:06.204Z,978.24
2017-08-25T01:49:16.474Z,978.23
2017-08-25T01:50:26.748Z,978.19
2017-08-25T01:51:36.695Z,978.27
2017-08-25T01:52:46.968Z,978.26
2017-08-25T01:53:56.932Z,978.29
2017-08-25T01:55:06.877Z,978.28
2017-08-25T01:56:17.148Z,978.28
2017-08-25T01:57:27.093Z,978.28
2017-08-25T01:58:37.359Z,978.28
2017-08-25T01:59:47.624Z,978.24
2017-08-25T02:00:57.890Z,978.26
2017-08-25T02:02:08.166Z,978.27
2017-08-25T02:03:17.838Z,978.3
2017-08-25T02:04:27.784Z,978.27
2017-08-25T02:05:38.051Z,978.25
2017-08-25T02:06:48.004Z,978.28
2017-08-25T02:07:58.275Z,978.24
2017-08-25T02:09:08.536Z,978.26
2017-08-25T02:10:18.163Z,978.22
2017-08-25T02:11:28.437Z,978.26
2017-08-25T02:12:38.704Z,978.27
2017-08-25T02:13:48.970Z,978.24
2017-08-25T02:14:59.538Z,978.25
2017-08-25T02:16:09.804Z,978.27
2017-08-25T02:17:20.074Z,978.26
2017-08-25T02:18:29.699Z,978.26
2017-08-25T02:19:39.323Z,978.26
2017-08-25T02:20:49.100Z,978.28
2017-08-25T02:21:59.043Z,978.25
2017-08-25T02:23:09.309Z,978.27
2017-08-25T02:24:19.578Z,978.27
2017-08-25T02:25:29.867Z,978.26
2017-08-25T02:26:40.068Z,978.28
2017-08-25T02:27:50.020Z,978.29
2017-08-25T02:28:59.642Z,978.29
2017-08-25T02:30:09.266Z,978.31
2017-08-25T02:31:19.536Z,978.29
2017-08-25T02:33:43.761Z,978.32
2017-08-25T02:34:53.713Z,978.32
2017-08-25T02:36:03.342Z,978.31
2017-08-25T02:37:13.287Z,978.31
2017-08-25T02:38:23.805Z,978.29
2017-08-25T02:39:33.754Z,978.28
2017-08-25T02:40:43.698Z,978.27
2017-08-25T02:41:53.326Z,978.29
2017-08-25T02:43:03.590Z,978.27
2017-08-25T02:44:13.688Z,978.28
2017-08-25T02:45:23.652Z,978.26
2017-08-25T02:46:33.607Z,978.27
2017-08-25T02:47:43.557Z,978.22
2017-08-25T02:48:53.838Z,978.23
2017-08-25T02:50:03.994Z,978.21
2017-08-25T02:51:14.269Z,978.2
2017-08-25T02:52:24.560Z,978.21
2017-08-25T02:53:34.831Z,978.24
2017-08-25T02:54:45.113Z,978.23
2017-08-25T02:55:55.038Z,978.24
2017-08-25T02:57:05.301Z,978.22
2017-08-25T02:58:15.567Z,978.16
2017-08-25T02:59:25.517Z,978.18
2017-08-25T03:00:35.795Z,978.16
2017-08-25T03:01:45.747Z,978.16
2017-08-25T03:02:56.021Z,978.16
2017-08-25T03:04:05.964Z,978.17
2017-08-25T03:05:15.924Z,978.15
2017-08-25T03:06:26.193Z,978.13
2017-08-25T03:07:36.465Z,978.17
2017-08-25T03:08:46.737Z,978.16
2017-08-25T03:09:56.687Z,978.2
2017-08-25T03:11:06.955Z,978.16
2017-08-25T03:12:16.901Z,978.21
2017-08-25T03:13:27.166Z,978.18
2017-08-25T03:14:37.111Z,978.22
2017-08-25T03:15:47.423Z,978.2
2017-08-25T03:16:57.364Z,978.2
2017-08-25T03:18:07.626Z,978.18
2017-08-25T03:19:17.573Z,978.21
2017-08-25T03:20:27.516Z,978.22
2017-08-25T03:21:37.788Z,978.22
2017-08-25T03:22:48.074Z,978.2
2017-08-25T03:23:58.339Z,978.2
2017-08-25T03:25:08.645Z,978.19
2017-08-25T03:26:18.269Z,978.21
2017-08-25T03:27:28.216Z,978.17
2017-08-25T03:28:37.841Z,978.17
2017-08-25T03:29:47.785Z,978.21
2017-08-25T03:30:57.407Z,978.22
2017-08-25T03:32:07.687Z,978.21
2017-08-25T03:33:17.637Z,978.23
2017-08-25T03:34:26.937Z,978.23
2017-08-25T03:35:36.883Z,978.23
2017-08-25T03:36:46.834Z,978.22
2017-08-25T03:37:57.102Z,978.26
2017-08-25T03:39:06.726Z,978.28
2017-08-25T03:40:16.673Z,978.28
2017-08-25T03:41:26.939Z,978.28
2017-08-25T03:42:37.207Z,978.27
2017-08-25T03:43:47.477Z,978.27
2017-08-25T03:44:57.424Z,978.27
2017-08-25T03:46:07.690Z,978.29
2017-08-25T03:47:17.959Z,978.29
2017-08-25T03:48:28.231Z,978.26
2017-08-25T03:49:38.496Z,978.28
2017-08-25T03:50:48.439Z,978.28
2017-08-25T03:51:58.703Z,978.3
2017-08-25T03:53:08.978Z,978.35
2017-08-25T03:54:19.242Z,978.36
2017-08-25T03:55:29.187Z,978.31
2017-08-25T03:56:39.134Z,978.3
2017-08-25T03:57:49.432Z,978.34
2017-08-25T03:58:59.696Z,978.32
2017-08-25T04:00:09.327Z,978.35
2017-08-25T04:01:19.591Z,978.4
2017-08-25T04:02:29.555Z,978.34
2017-08-25T04:03:39.827Z,978.37
2017-08-25T04:04:49.772Z,978.35
2017-08-25T04:05:59.402Z,978.39
2017-08-25T04:07:09.353Z,978.35
2017-08-25T04:08:19.626Z,978.39
2017-08-25T04:09:29.892Z,978.39
2017-08-25T04:10:40.156Z,978.37
2017-08-25T04:11:50.422Z,978.41
2017-08-25T04:13:00.692Z,978.41
2017-08-25T04:14:10.316Z,978.46
2017-08-25T04:15:20.590Z,978.5
2017-08-25T04:16:30.856Z,978.52
2017-08-25T04:17:41.121Z,978.51
2017-08-25T04:18:51.393Z,978.51
2017-08-25T04:20:01.658Z,978.55
2017-08-25T04:21:11.937Z,978.57
2017-08-25T04:22:22.207Z,978.58
2017-08-25T04:23:32.479Z,978.61
2017-08-25T04:24:42.743Z,978.62
2017-08-25T04:25:52.688Z,978.65
2017-08-25T04:27:02.951Z,978.69
2017-08-25T04:28:13.216Z,978.69
2017-08-25T04:29:23.479Z,978.68
2017-08-25T04:30:33.747Z,978.73
2017-08-25T04:31:44.015Z,978.74
2017-08-25T04:32:54.284Z,978.74
2017-08-25T04:34:04.550Z,978.74
2017-08-25T04:35:14.835Z,978.76
2017-08-25T04:36:24.445Z,978.78
2017-08-25T04:37:34.074Z,978.75
2017-08-25T04:38:44.018Z,978.74
2017-08-25T04:39:53.639Z,978.73
2017-08-25T04:41:03.904Z,978.75
2017-08-25T04:42:14.185Z,978.74
2017-08-25T04:43:24.450Z,978.72
2017-08-25T04:44:34.716Z,978.72
2017-08-25T04:45:44.662Z,978.73
2017-08-25T04:46:54.942Z,978.76
2017-08-25T04:48:05.205Z,978.75
2017-08-25T04:49:14.828Z,978.76
2017-08-25T04:50:25.103Z,978.77
2017-08-25T04:51:35.047Z,978.79
2017-08-25T04:52:45.309Z,978.79
2017-08-25T04:53:54.935Z,978.77
2017-08-25T04:55:05.202Z,978.84
2017-08-25T04:56:15.464Z,978.83
2017-08-25T04:57:25.729Z,978.81
2017-08-25T04:58:36.003Z,978.85
2017-08-25T04:59:45.972Z,978.89
2017-08-25T05:00:55.914Z,978.85
2017-08-25T05:02:06.183Z,978.86
2017-08-25T05:03:16.447Z,978.84
2017-08-25T05:04:26.716Z,978.86
2017-08-25T05:05:36.981Z,978.93
2017-08-25T05:06:46.930Z,978.95
2017-08-25T05:07:57.194Z,978.94
2017-08-25T05:09:07.138Z,978.99
2017-08-25T05:10:17.089Z,979
2017-08-25T05:11:27.362Z,979.04
2017-08-25T05:12:37.633Z,979.03
2017-08-25T05:13:47.577Z,979.05
2017-08-25T05:14:56.878Z,979.06
2017-08-25T05:16:07.147Z,979.07
2017-08-25T05:17:17.114Z,979.07
2017-08-25T05:18:27.403Z,979.11
2017-08-25T05:19:37.670Z,979.09
2017-08-25T05:20:47.613Z,979.1
2017-08-25T05:21:57.882Z,979.1
2017-08-25T05:23:07.835Z,979.09
2017-08-25T05:24:18.107Z,979.1
2017-08-25T05:25:28.371Z,979.05
2017-08-25T05:26:38.640Z,979.1
2017-08-25T05:27:48.603Z,979.14
2017-08-25T05:28:58.872Z,979.13
2017-08-25T05:30:08.494Z,979.14
2017-08-25T05:31:18.437Z,979.11
2017-08-25T05:32:28.705Z,979.13
2017-08-25T05:33:38.980Z,979.06
2017-08-25T05:34:48.925Z,979.1
2017-08-25T05:35:59.191Z,979.06
2017-08-25T05:37:09.140Z,979.1
2017-08-25T05:38:18.762Z,979.12
2017-08-25T05:39:29.039Z,979.09
2017-08-25T05:40:39.308Z,979.1
2017-08-25T05:41:49.252Z,979.14
2017-08-25T05:42:59.196Z,979.12
2017-08-25T05:44:09.470Z,979.11
2017-08-25T05:45:19.415Z,979.14
2017-08-25T05:46:29.690Z,979.13
2017-08-25T05:47:39.954Z,979.12
2017-08-25T05:48:49.575Z,979.1
2017-08-25T05:49:59.521Z,979.13
2017-08-25T05:51:09.492Z,979.13
2017-08-25T05:52:19.761Z,979.17
2017-08-25T05:53:30.030Z,979.14
2017-08-25T05:54:40.302Z,979.11
2017-08-25T05:55:50.573Z,979.15
2017-08-25T05:57:00.842Z,979.1
2017-08-25T05:58:10.815Z,979.12
2017-08-25T05:59:21.087Z,979.13
2017-08-25T06:00:31.358Z,979.17
2017-08-25T06:01:41.625Z,979.14
2017-08-25T06:02:51.568Z,979.15
2017-08-25T06:04:01.514Z,979.18
2017-08-25T06:05:11.139Z,979.2
2017-08-25T06:06:21.407Z,979.24
2017-08-25T06:07:31.678Z,979.28
2017-08-25T06:08:41.626Z,979.25
2017-08-25T06:09:51.909Z,979.27
2017-08-25T06:11:02.175Z,979.26
2017-08-25T06:12:12.440Z,979.33
2017-08-25T06:13:22.704Z,979.33
2017-08-25T06:14:32.978Z,979.34
2017-08-25T06:15:42.924Z,979.33
2017-08-25T06:16:52.868Z,979.35
2017-08-25T06:18:02.821Z,979.39
2017-08-25T06:19:12.867Z,979.38
2017-08-25T06:20:22.812Z,979.42
2017-08-25T06:21:33.079Z,979.4
2017-08-25T06:22:43.028Z,979.43
2017-08-25T06:23:52.980Z,979.39
2017-08-25T06:25:03.255Z,979.4
2017-08-25T06:26:13.200Z,979.37
2017-08-25T06:27:23.146Z,979.42
2017-08-25T06:28:33.412Z,979.39
2017-08-25T06:29:43.358Z,979.4
2017-08-25T06:30:53.633Z,979.44
2017-08-25T06:32:03.264Z,979.44
2017-08-25T06:33:13.217Z,979.44
2017-08-25T06:34:22.842Z,979.47
2017-08-25T06:35:32.788Z,979.48
2017-08-25T06:36:43.054Z,979.48
2017-08-25T06:37:53.000Z,979.53
2017-08-25T06:39:03.269Z,979.51
2017-08-25T06:40:13.544Z,979.5
2017-08-25T06:41:23.856Z,979.56
2017-08-25T06:42:34.133Z,979.56
2017-08-25T06:43:44.405Z,979.57
2017-08-25T06:44:54.679Z,979.61
2017-08-25T06:46:04.624Z,979.63
2017-08-25T06:47:13.605Z,979.58
2017-08-25T06:48:23.554Z,979.64
2017-08-25T06:49:33.178Z,979.61
2017-08-25T06:50:43.124Z,979.62
2017-08-25T06:51:52.753Z,979.64
2017-08-25T06:53:02.704Z,979.69
2017-08-25T06:54:12.984Z,979.7
2017-08-25T06:55:23.275Z,979.7
2017-08-25T06:56:33.544Z,979.72
2017-08-25T06:57:43.491Z,979.71
2017-08-25T06:58:53.437Z,979.72
2017-08-25T07:00:03.420Z,979.69
2017-08-25T07:01:13.364Z,979.7
2017-08-25T07:02:23.636Z,979.75
2017-08-25T07:03:33.267Z,979.75
2017-08-25T07:04:42.900Z,979.76
2017-08-25T07:05:53.189Z,979.76
2017-08-25T07:07:03.149Z,979.76
2017-08-25T07:08:13.419Z,979.8
2017-08-25T07:09:23.685Z,979.83
2017-08-25T07:10:33.957Z,979.83
2017-08-25T07:11:43.903Z,979.76
2017-08-25T07:12:54.169Z,979.8
2017-08-25T07:14:04.119Z,979.85
2017-08-25T07:15:13.750Z,979.87
2017-08-25T07:16:24.028Z,979.87
2017-08-25T07:17:34.295Z,979.84
2017-08-25T07:18:44.239Z,979.89
2017-08-25T07:19:54.512Z,979.94
2017-08-25T07:21:04.786Z,979.91
2017-08-25T07:22:15.053Z,979.93
2017-08-25T07:23:25.319Z,979.93
2017-08-25T07:24:35.585Z,979.91
2017-08-25T07:25:44.889Z,979.93
2017-08-25T07:26:54.838Z,979.94
2017-08-25T07:28:05.107Z,979.98
2017-08-25T07:29:14.733Z,979.96
2017-08-25T07:30:25.004Z,980.01
2017-08-25T07:31:35.274Z,979.98
2017-08-25T07:32:44.907Z,979.99
2017-08-25T07:33:54.853Z,979.92
2017-08-25T07:35:04.802Z,979.99
2017-08-25T07:36:15.069Z,980
2017-08-25T07:37:25.342Z,980
2017-08-25T07:38:35.616Z,980.04
2017-08-25T07:39:45.567Z,980.03
2017-08-25T07:40:54.872Z,979.99
2017-08-25T07:42:04.820Z,980.02
2017-08-25T07:43:14.766Z,980.04
2017-08-25T07:44:24.714Z,980.07
2017-08-25T07:45:34.989Z,980.06
2017-08-25T07:46:45.258Z,980.09
2017-08-25T07:47:55.209Z,980.09
2017-08-25T07:49:04.844Z,980.1
2017-08-25T07:50:14.788Z,980.06
2017-08-25T07:51:24.750Z,980.12
2017-08-25T07:52:35.020Z,980.11
2017-08-25T07:53:44.973Z,980.09
2017-08-25T07:54:54.929Z,980.08
2017-08-25T07:56:04.876Z,980.09
2017-08-25T07:57:14.827Z,980.09
2017-08-25T07:58:25.094Z,980.15
2017-08-25T07:59:34.401Z,980.1
2017-08-25T08:00:44.674Z,980.12
2017-08-25T08:01:54.954Z,980.11
2017-08-25T08:03:05.226Z,980.09
2017-08-25T08:04:15.496Z,980.13
2017-08-25T08:05:25.463Z,980.13
2017-08-25T08:06:35.412Z,980.15
2017-08-25T08:07:45.361Z,980.19
2017-08-25T08:08:55.310Z,980.17
2017-08-25T08:10:05.263Z,980.19
2017-08-25T08:11:15.536Z,980.18
2017-08-25T08:12:25.496Z,980.21
2017-08-25T08:13:35.764Z,980.21
2017-08-25T08:14:45.071Z,980.24
2017-08-25T08:15:55.019Z,980.25
2017-08-25T08:17:05.292Z,980.27
2017-08-25T08:18:14.921Z,980.25
2017-08-25T08:19:25.211Z,980.31
2017-08-25T08:20:35.175Z,980.29
2017-08-25T08:21:45.142Z,980.28
2017-08-25T08:22:55.028Z,980.31
2017-08-25T08:24:05.314Z,980.35
2017-08-25T08:25:15.597Z,980.31
2017-08-25T08:26:25.867Z,980.38
2017-08-25T08:27:35.818Z,980.38
2017-08-25T08:28:46.087Z,980.4
2017-08-25T08:29:56.358Z,980.42
2017-08-25T08:31:05.986Z,980.39
2017-08-25T08:32:15.941Z,980.43
2017-08-25T08:33:26.217Z,980.4
2017-08-25T08:34:36.167Z,980.37
2017-08-25T08:35:45.805Z,980.37
2017-08-25T08:36:55.760Z,980.4
2017-08-25T08:38:05.707Z,980.42
2017-08-25T08:39:15.976Z,980.41
2017-08-25T08:40:26.262Z,980.39
2017-08-25T08:41:36.210Z,980.43
2017-08-25T08:42:45.850Z,980.42
2017-08-25T08:43:55.810Z,980.38
2017-08-25T08:45:05.816Z,980.45
2017-08-25T08:46:16.122Z,980.41
2017-08-25T08:47:26.395Z,980.42
2017-08-25T08:48:36.662Z,980.42
2017-08-25T08:49:46.612Z,980.4
2017-08-25T08:50:56.240Z,980.38
2017-08-25T08:52:06.508Z,980.43
2017-08-25T08:53:16.777Z,980.41
2017-08-25T08:54:26.730Z,980.43
2017-08-25T08:55:36.997Z,980.38
2017-08-25T08:56:47.290Z,980.34
2017-08-25T08:57:56.918Z,980.32
2017-08-25T08:59:07.194Z,980.3
2017-08-25T09:00:17.462Z,980.28
2017-08-25T09:01:27.416Z,980.29
2017-08-25T09:02:37.364Z,980.31
2017-08-25T09:03:47.637Z,980.32
2017-08-25T09:04:57.586Z,980.32
2017-08-25T09:06:07.220Z,980.33
2017-08-25T09:07:17.176Z,980.34
2017-08-25T09:08:27.447Z,980.37
2017-08-25T09:09:37.400Z,980.37
2017-08-25T09:10:47.347Z,980.34
2017-08-25T09:11:57.627Z,980.37
2017-08-25T09:13:07.256Z,980.43
2017-08-25T09:14:17.526Z,980.41
2017-08-25T09:15:27.475Z,980.4
2017-08-25T09:16:37.426Z,980.4
2017-08-25T09:17:47.380Z,980.39
2017-08-25T09:18:57.335Z,980.41
2017-08-25T09:20:07.295Z,980.41
2017-08-25T09:21:16.923Z,980.34
2017-08-25T09:22:27.213Z,980.4
2017-08-25T09:23:37.164Z,980.39
2017-08-25T09:24:47.115Z,980.42
2017-08-25T09:25:57.391Z,980.42
2017-08-25T09:27:07.342Z,980.45
2017-08-25T09:28:17.292Z,980.45
2017-08-25T09:29:26.927Z,980.44
2017-08-25T09:30:37.199Z,980.51
2017-08-25T09:31:46.833Z,980.48
2017-08-25T09:32:57.107Z,980.44
2017-08-25T09:34:07.383Z,980.48
2017-08-25T09:35:17.011Z,980.46
2017-08-25T09:36:27.282Z,980.46
2017-08-25T09:37:37.233Z,980.53
2017-08-25T09:38:46.876Z,980.49
2017-08-25T09:39:57.152Z,980.51
2017-08-25T09:41:07.103Z,980.52
2017-08-25T09:42:17.374Z,980.54
2017-08-25T09:43:27.322Z,980.58
2017-08-25T09:44:37.603Z,980.47
2017-08-25T09:45:46.912Z,980.55
2017-08-25T09:46:57.182Z,980.5
2017-08-25T09:48:07.451Z,980.53
2017-08-25T09:49:17.401Z,980.56
2017-08-25T09:50:27.673Z,980.57
2017-08-25T09:51:37.623Z,980.53
2017-08-25T09:52:47.893Z,980.56
2017-08-25T09:53:57.520Z,980.53
2017-08-25T09:55:07.470Z,980.58
2017-08-25T09:56:17.751Z,980.56
2017-08-25T09:57:28.026Z,980.55
2017-08-25T09:58:38.298Z,980.55
2017-08-25T09:59:48.567Z,980.55
2017-08-25T10:00:58.525Z,980.55
2017-08-25T10:02:08.159Z,980.58
2017-08-25T10:03:18.439Z,980.54
2017-08-25T10:04:28.710Z,980.57
2017-08-25T10:05:38.985Z,980.57
2017-08-25T10:06:49.262Z,980.57
2017-08-25T10:07:59.535Z,980.55
2017-08-25T10:09:09.489Z,980.52
2017-08-25T10:10:19.444Z,980.46
2017-08-25T10:11:29.396Z,980.47
2017-08-25T10:12:39.354Z,980.51
2017-08-25T10:13:49.307Z,980.49
2017-08-25T10:14:59.581Z,980.46
2017-08-25T10:16:09.860Z,980.48
2017-08-25T10:17:19.498Z,980.48
2017-08-25T10:18:29.450Z,980.48
2017-08-25T10:19:39.079Z,980.48
2017-08-25T10:20:49.035Z,980.48
2017-08-25T10:21:59.318Z,980.48
2017-08-25T10:23:09.275Z,980.48
2017-08-25T10:24:19.550Z,980.51
2017-08-25T10:25:29.821Z,980.52
2017-08-25T10:26:40.092Z,980.52
2017-08-25T10:27:50.374Z,980.47
2017-08-25T10:29:00.652Z,980.48
2017-08-25T10:30:10.283Z,980.55
2017-08-25T10:31:20.238Z,980.53
2017-08-25T10:32:30.511Z,980.52
2017-08-25T10:33:40.786Z,980.46
2017-08-25T10:34:50.739Z,980.48
2017-08-25T10:36:00.375Z,980.51
2017-08-25T10:37:10.327Z,980.52
2017-08-25T10:38:20.287Z,980.52
2017-08-25T10:39:30.237Z,980.54
2017-08-25T10:40:40.513Z,980.5
2017-08-25T10:41:50.788Z,980.51
2017-08-25T10:43:00.420Z,980.49
2017-08-25T10:44:10.372Z,980.51
2017-08-25T10:45:20.321Z,980.49
2017-08-25T10:46:30.274Z,980.47
2017-08-25T10:47:40.223Z,980.48
2017-08-25T10:48:50.494Z,980.51
2017-08-25T10:50:00.765Z,980.45
2017-08-25T10:51:10.394Z,980.45
2017-08-25T10:52:20.344Z,980.48
2017-08-25T10:53:30.298Z,980.5
2017-08-25T10:54:40.249Z,980.54
2017-08-25T10:55:50.200Z,980.51
2017-08-25T10:57:00.149Z,980.5
2017-08-25T10:58:10.430Z,980.48
2017-08-25T10:59:20.059Z,980.48
2017-08-25T11:00:29.690Z,980.49
2017-08-25T11:01:39.320Z,980.48
2017-08-25T11:02:49.270Z,980.54
2017-08-25T11:03:59.569Z,980.47
2017-08-25T11:05:09.522Z,980.45
2017-08-25T11:06:19.795Z,980.47
2017-08-25T11:07:30.071Z,980.45
2017-08-25T11:08:40.023Z,980.45
2017-08-25T11:09:50.297Z,980.46
2017-08-25T11:11:00.572Z,980.43
2017-08-25T11:12:10.851Z,980.42
2017-08-25T11:13:20.812Z,980.43
2017-08-25T11:14:31.084Z,980.38
2017-08-25T11:15:41.354Z,980.38
2017-08-25T11:16:50.982Z,980.41
2017-08-25T11:18:00.622Z,980.44
2017-08-25T11:19:10.917Z,980.45
2017-08-25T11:20:20.867Z,980.47
2017-08-25T11:21:31.146Z,980.54
2017-08-25T11:22:41.101Z,980.56
2017-08-25T11:23:51.053Z,980.63
2017-08-25T11:25:00.369Z,980.7
2017-08-25T11:26:10.012Z,980.67
2017-08-25T11:27:19.964Z,980.66
2017-08-25T11:28:30.237Z,980.61
2017-08-25T11:29:40.539Z,980.59
2017-08-25T11:30:50.490Z,980.6
2017-08-25T11:32:00.445Z,980.62
2017-08-25T11:33:09.757Z,980.61
2017-08-25T11:34:19.392Z,980.6
2017-08-25T11:35:29.670Z,980.58
2017-08-25T11:36:39.961Z,980.65
2017-08-25T11:37:50.239Z,980.67
2017-08-25T11:39:00.531Z,980.65
2017-08-25T11:40:10.165Z,980.68
2017-08-25T11:41:20.446Z,980.64
2017-08-25T11:42:30.408Z,980.66
2017-08-25T11:43:40.045Z,980.68
2017-08-25T11:44:50.323Z,980.65
2017-08-25T11:46:00.281Z,980.67
2017-08-25T11:47:10.567Z,980.78
2017-08-25T11:48:20.854Z,980.71
2017-08-25T11:49:30.817Z,980.73
2017-08-25T11:50:40.458Z,980.77
2017-08-25T11:51:50.744Z,980.73
2017-08-25T11:53:00.385Z,980.75
2017-08-25T11:54:10.347Z,980.72
2017-08-25T11:55:20.635Z,980.74
2017-08-25T11:56:30.930Z,980.75
2017-08-25T11:57:41.216Z,980.74
2017-08-25T11:58:51.178Z,980.77
2017-08-25T12:00:01.463Z,980.78
2017-08-25T12:01:10.795Z,980.75
2017-08-25T12:02:20.761Z,980.87
2017-08-25T12:03:31.047Z,980.77
2017-08-25T12:04:41.333Z,980.78
2017-08-25T12:05:51.297Z,980.78
2017-08-25T12:07:01.595Z,980.74
2017-08-25T12:08:11.879Z,980.81
2017-08-25T12:09:22.188Z,980.81
2017-08-25T12:10:32.484Z,980.82
2017-08-25T12:11:41.842Z,980.8
2017-08-25T12:12:51.806Z,980.81
2017-08-25T12:14:01.775Z,980.84
2017-08-25T12:15:11.424Z,980.83
2017-08-25T12:16:21.710Z,980.85
2017-08-25T12:17:31.681Z,980.87
2017-08-25T12:18:41.325Z,980.89
2017-08-25T12:19:51.614Z,980.9
2017-08-25T12:21:01.903Z,980.91
2017-08-25T12:22:12.191Z,980.92
2017-08-25T12:23:22.480Z,980.93
2017-08-25T12:24:32.450Z,980.94
2017-08-25T12:25:42.736Z,980.93
2017-08-25T12:26:52.405Z,980.84
2017-08-25T12:28:02.372Z,980.88
2017-08-25T12:29:12.660Z,980.84
2017-08-25T12:30:22.623Z,980.9
2017-08-25T12:31:32.915Z,980.92
2017-08-25T12:32:42.903Z,980.95
2017-08-25T12:33:52.547Z,980.91
2017-08-25T12:35:02.511Z,980.82
2017-08-25T12:36:12.799Z,980.97
2017-08-25T12:37:23.089Z,980.91
2017-08-25T12:38:33.065Z,980.87
2017-08-25T12:39:43.034Z,980.93
2017-08-25T12:40:53.324Z,980.9
2017-08-25T12:42:03.613Z,980.88
2017-08-25T12:43:13.581Z,981
2017-08-25T12:44:23.546Z,980.97
2017-08-25T12:45:33.833Z,980.89
2017-08-25T12:46:44.122Z,980.94
2017-08-25T12:47:54.411Z,980.93
2017-08-25T12:49:04.380Z,980.91
2017-08-25T12:50:14.690Z,980.93
2017-08-25T12:51:24.989Z,980.95
2017-08-25T12:52:34.956Z,980.9
2017-08-25T12:53:45.246Z,980.95
2017-08-25T12:54:55.533Z,980.93
2017-08-25T12:56:05.819Z,980.97
2017-08-25T12:57:15.806Z,980.96
2017-08-25T12:58:25.763Z,980.97
2017-08-25T12:59:36.049Z,981.01
2017-08-25T13:00:46.335Z,981
2017-08-25T13:01:56.301Z,980.97
2017-08-25T13:03:05.947Z,980.98
2017-08-25T13:04:15.596Z,980.95
2017-08-25T13:05:25.884Z,980.97
2017-08-25T13:06:36.179Z,980.98
2017-08-25T13:07:46.474Z,980.98
2017-08-25T13:08:56.120Z,980.92
2017-08-25T13:10:06.408Z,980.91
2017-08-25T13:11:16.053Z,980.91
2017-08-25T13:12:25.698Z,980.92
2017-08-25T13:13:35.994Z,980.96
2017-08-25T13:14:46.282Z,980.92
2017-08-25T13:15:55.606Z,980.92
2017-08-25T13:17:05.574Z,980.89
2017-08-25T13:18:14.897Z,980.87
2017-08-25T13:19:24.542Z,980.86
2017-08-25T13:20:34.836Z,980.88
2017-08-25T13:21:45.121Z,980.88
2017-08-25T13:22:55.416Z,980.91
2017-08-25T13:24:05.705Z,980.91
2017-08-25T13:25:15.673Z,980.95
2017-08-25T13:26:25.645Z,980.9
2017-08-25T13:27:35.617Z,980.96
2017-08-25T13:28:45.911Z,980.96
2017-08-25T13:29:55.881Z,980.96
2017-08-25T13:31:05.534Z,980.96
2017-08-25T13:32:15.504Z,980.96
2017-08-25T13:33:25.802Z,980.94
2017-08-25T13:34:35.769Z,980.93
2017-08-25T13:35:46.065Z,980.94
2017-08-25T13:36:55.712Z,980.92
2017-08-25T13:38:06.002Z,980.9
2017-08-25T13:39:16.293Z,980.93
2017-08-25T13:40:26.586Z,980.89
2017-08-25T13:41:36.552Z,980.92
2017-08-25T13:42:46.850Z,980.95
2017-08-25T13:43:57.144Z,980.94
2017-08-25T13:45:07.114Z,980.91
2017-08-25T13:46:16.762Z,980.9
2017-08-25T13:47:26.421Z,980.88
2017-08-25T13:48:36.714Z,980.89
2017-08-25T13:49:46.681Z,980.93
2017-08-25T13:50:56.647Z,980.96
2017-08-25T13:52:06.939Z,980.93
2017-08-25T13:53:17.237Z,980.97
2017-08-25T13:54:27.205Z,981.04
2017-08-25T13:55:37.540Z,981.02
2017-08-25T13:56:47.827Z,981
2017-08-25T13:57:57.795Z,980.99
2017-08-25T13:59:08.084Z,980.99
2017-08-25T14:00:18.373Z,980.98
2017-08-25T14:01:28.677Z,980.94
2017-08-25T14:02:38.646Z,981
2017-08-25T14:03:48.612Z,981.01
2017-08-25T14:04:58.261Z,981.02
2017-08-25T14:06:08.235Z,981
2017-08-25T14:07:18.205Z,981.05
2017-08-25T14:08:28.500Z,981.05
2017-08-25T14:09:38.792Z,981.02
2017-08-25T14:10:48.758Z,981.03
2017-08-25T14:11:58.085Z,981.03
2017-08-25T14:13:08.380Z,981.01
2017-08-25T14:14:18.670Z,981.1
2017-08-25T14:15:28.964Z,981.09
2017-08-25T14:16:39.257Z,981.06
2017-08-25T14:17:48.902Z,981.09
2017-08-25T14:18:58.547Z,981.09
2017-08-25T14:20:08.220Z,981.12
2017-08-25T14:21:18.190Z,981.09
2017-08-25T14:22:28.488Z,981.11
2017-08-25T14:23:38.786Z,981.14
2017-08-25T14:24:48.753Z,981.15
2017-08-25T14:25:58.399Z,981.12
2017-08-25T14:27:08.369Z,981.11
2017-08-25T14:28:18.653Z,981.14
2017-08-25T14:29:28.940Z,981.14
2017-08-25T14:30:39.228Z,981.11
2017-08-25T14:31:49.194Z,981.1
2017-08-25T14:32:58.839Z,981.14
2017-08-25T14:34:09.125Z,981.15
2017-08-25T14:35:19.411Z,981.09
2017-08-25T14:36:29.711Z,981.13
2017-08-25T14:37:39.680Z,981.07
2017-08-25T14:38:49.650Z,981.1